sensor_id;sensor_type;location;lat;lon;timestamp;pressure;altitude;pressure_sealevel;temperature
30765;BMP180;494;48.744;10.106;2022-07-06T00:00:34;96248.00;;;16.20
30765;BMP180;494;48.744;10.106;2022-07-06T00:03:03;96256.00;;;16.10
30765;BMP180;494;48.744;10.106;2022-07-06T00:05:32;96260.00;;;16.10
30765;BMP180;494;48.744;10.106;2022-07-06T00:08:00;96255.00;;;16.00
30765;BMP180;494;48.744;10.106;2022-07-06T00:10:30;96117.00;;;15.60
30765;BMP180;494;48.744;10.106;2022-07-06T00:12:58;96149.00;;;15.80
30765;BMP180;494;48.744;10.106;2022-07-06T00:15:27;95888.00;;;15.70
30765;BMP180;494;48.744;10.106;2022-07-06T00:17:55;96261.00;;;15.50
30765;BMP180;494;48.744;10.106;2022-07-06T00:20:24;96258.00;;;15.50
30765;BMP180;494;48.744;10.106;2022-07-06T00:22:52;96160.00;;;15.50
30765;BMP180;494;48.744;10.106;2022-07-06T00:25:21;96249.00;;;15.60
30765;BMP180;494;48.744;10.106;2022-07-06T00:27:50;96252.00;;;15.50
30765;BMP180;494;48.744;10.106;2022-07-06T00:30:19;96252.00;;;15.60
30765;BMP180;494;48.744;10.106;2022-07-06T00:32:47;96054.00;;;15.70
30765;BMP180;494;48.744;10.106;2022-07-06T00:35:16;96171.00;;;15.60
30765;BMP180;494;48.744;10.106;2022-07-06T00:37:45;96134.00;;;15.70
30765;BMP180;494;48.744;10.106;2022-07-06T00:40:13;96244.00;;;15.70
30765;BMP180;494;48.744;10.106;2022-07-06T00:42:43;96238.00;;;15.70
30765;BMP180;494;48.744;10.106;2022-07-06T00:45:16;96031.00;;;15.60
30765;BMP180;494;48.744;10.106;2022-07-06T00:47:46;95626.00;;;15.60
30765;BMP180;494;48.744;10.106;2022-07-06T00:50:17;96241.00;;;15.50
30765;BMP180;494;48.744;10.106;2022-07-06T00:52:50;95827.00;;;15.60
30765;BMP180;494;48.744;10.106;2022-07-06T00:55:21;95982.00;;;15.60
30765;BMP180;494;48.744;10.106;2022-07-06T00:57:51;96237.00;;;15.50
30765;BMP180;494;48.744;10.106;2022-07-06T01:00:23;95984.00;;;15.40
30765;BMP180;494;48.744;10.106;2022-07-06T01:02:52;96016.00;;;15.20
30765;BMP180;494;48.744;10.106;2022-07-06T01:05:22;96219.00;;;15.30
30765;BMP180;494;48.744;10.106;2022-07-06T01:07:52;96231.00;;;14.00
30765;BMP180;494;48.744;10.106;2022-07-06T01:10:22;96289.00;;;15.10
30765;BMP180;494;48.744;10.106;2022-07-06T01:12:51;96233.00;;;15.10
30765;BMP180;494;48.744;10.106;2022-07-06T01:15:25;96113.00;;;15.00
30765;BMP180;494;48.744;10.106;2022-07-06T01:17:54;96295.00;;;15.00
30765;BMP180;494;48.744;10.106;2022-07-06T01:20:26;96223.00;;;15.00
30765;BMP180;494;48.744;10.106;2022-07-06T01:22:55;96200.00;;;14.90
30765;BMP180;494;48.744;10.106;2022-07-06T01:25:27;96006.00;;;14.80
30765;BMP180;494;48.744;10.106;2022-07-06T01:27:55;96243.00;;;14.80
30765;BMP180;494;48.744;10.106;2022-07-06T01:30:24;96171.00;;;14.80
30765;BMP180;494;48.744;10.106;2022-07-06T01:32:52;96155.00;;;14.80
30765;BMP180;494;48.744;10.106;2022-07-06T01:35:24;95917.00;;;14.40
30765;BMP180;494;48.744;10.106;2022-07-06T01:37:54;96153.00;;;14.70
30765;BMP180;494;48.744;10.106;2022-07-06T01:40:23;96229.00;;;14.70
30765;BMP180;494;48.744;10.106;2022-07-06T01:42:51;95365.00;;;14.70
30765;BMP180;494;48.744;10.106;2022-07-06T01:45:19;96009.00;;;14.70
30765;BMP180;494;48.744;10.106;2022-07-06T01:47:48;96036.00;;;14.60
30765;BMP180;494;48.744;10.106;2022-07-06T01:50:16;96246.00;;;14.80
30765;BMP180;494;48.744;10.106;2022-07-06T01:52:46;96184.00;;;14.80
30765;BMP180;494;48.744;10.106;2022-07-06T01:55:15;96235.00;;;14.50
30765;BMP180;494;48.744;10.106;2022-07-06T01:57:44;96229.00;;;14.80
30765;BMP180;494;48.744;10.106;2022-07-06T02:00:13;96083.00;;;14.60
30765;BMP180;494;48.744;10.106;2022-07-06T02:02:42;96160.00;;;14.60
30765;BMP180;494;48.744;10.106;2022-07-06T02:05:11;95959.00;;;14.70
30765;BMP180;494;48.744;10.106;2022-07-06T02:07:39;95910.00;;;12.90
30765;BMP180;494;48.744;10.106;2022-07-06T02:10:09;95824.00;;;14.70
30765;BMP180;494;48.744;10.106;2022-07-06T02:12:38;96229.00;;;14.30
30765;BMP180;494;48.744;10.106;2022-07-06T02:15:08;95948.00;;;14.50
30765;BMP180;494;48.744;10.106;2022-07-06T02:17:36;96109.00;;;13.90
30765;BMP180;494;48.744;10.106;2022-07-06T02:20:06;95997.00;;;14.50
30765;BMP180;494;48.744;10.106;2022-07-06T02:22:36;96100.00;;;14.50
30765;BMP180;494;48.744;10.106;2022-07-06T02:25:06;96127.00;;;14.60
30765;BMP180;494;48.744;10.106;2022-07-06T02:27:36;96027.00;;;14.50
30765;BMP180;494;48.744;10.106;2022-07-06T02:30:06;95824.00;;;14.40
30765;BMP180;494;48.744;10.106;2022-07-06T02:32:34;95668.00;;;13.70
30765;BMP180;494;48.744;10.106;2022-07-06T02:35:04;96230.00;;;14.40
30765;BMP180;494;48.744;10.106;2022-07-06T02:37:32;96289.00;;;13.20
30765;BMP180;494;48.744;10.106;2022-07-06T02:40:01;96147.00;;;14.10
30765;BMP180;494;48.744;10.106;2022-07-06T02:42:29;96173.00;;;14.10
30765;BMP180;494;48.744;10.106;2022-07-06T02:44:59;96202.00;;;14.20
30765;BMP180;494;48.744;10.106;2022-07-06T02:47:28;96227.00;;;14.30
30765;BMP180;494;48.744;10.106;2022-07-06T02:49:57;96228.00;;;14.20
30765;BMP180;494;48.744;10.106;2022-07-06T02:52:25;96110.00;;;13.50
30765;BMP180;494;48.744;10.106;2022-07-06T02:54:54;95934.00;;;14.20
30765;BMP180;494;48.744;10.106;2022-07-06T02:57:22;96242.00;;;14.20
30765;BMP180;494;48.744;10.106;2022-07-06T02:59:51;96246.00;;;14.30
30765;BMP180;494;48.744;10.106;2022-07-06T03:02:20;96248.00;;;14.10
30765;BMP180;494;48.744;10.106;2022-07-06T03:04:50;96129.00;;;13.60
30765;BMP180;494;48.744;10.106;2022-07-06T03:07:19;95882.00;;;14.30
30765;BMP180;494;48.744;10.106;2022-07-06T03:09:47;96251.00;;;14.40
30765;BMP180;494;48.744;10.106;2022-07-06T03:12:16;96276.00;;;14.30
30765;BMP180;494;48.744;10.106;2022-07-06T03:14:44;96055.00;;;14.40
30765;BMP180;494;48.744;10.106;2022-07-06T03:17:13;96167.00;;;14.50
30765;BMP180;494;48.744;10.106;2022-07-06T03:19:43;96256.00;;;14.60
30765;BMP180;494;48.744;10.106;2022-07-06T03:22:11;96250.00;;;14.60
30765;BMP180;494;48.744;10.106;2022-07-06T03:24:40;95860.00;;;14.20
30765;BMP180;494;48.744;10.106;2022-07-06T03:27:09;96271.00;;;14.30
30765;BMP180;494;48.744;10.106;2022-07-06T03:29:37;96263.00;;;14.00
30765;BMP180;494;48.744;10.106;2022-07-06T03:32:06;96257.00;;;14.70
30765;BMP180;494;48.744;10.106;2022-07-06T03:34:35;96126.00;;;14.40
30765;BMP180;494;48.744;10.106;2022-07-06T03:37:05;95964.00;;;14.90
30765;BMP180;494;48.744;10.106;2022-07-06T03:39:34;96270.00;;;14.90
30765;BMP180;494;48.744;10.106;2022-07-06T03:42:03;96171.00;;;14.90
30765;BMP180;494;48.744;10.106;2022-07-06T03:44:32;96268.00;;;15.00
30765;BMP180;494;48.744;10.106;2022-07-06T03:47:00;96268.00;;;15.10
30765;BMP180;494;48.744;10.106;2022-07-06T03:49:29;96260.00;;;15.10
30765;BMP180;494;48.744;10.106;2022-07-06T03:51:57;95972.00;;;13.80
30765;BMP180;494;48.744;10.106;2022-07-06T03:54:27;95998.00;;;14.40
30765;BMP180;494;48.744;10.106;2022-07-06T03:56:56;96258.00;;;15.20
30765;BMP180;494;48.744;10.106;2022-07-06T03:59:24;96260.00;;;15.20
30765;BMP180;494;48.744;10.106;2022-07-06T04:01:52;95896.00;;;14.00
30765;BMP180;494;48.744;10.106;2022-07-06T04:04:21;96264.00;;;14.90
30765;BMP180;494;48.744;10.106;2022-07-06T04:06:49;95729.00;;;15.10
30765;BMP180;494;48.744;10.106;2022-07-06T04:09:18;96267.00;;;15.20
30765;BMP180;494;48.744;10.106;2022-07-06T04:11:48;96322.00;;;15.20
30765;BMP180;494;48.744;10.106;2022-07-06T04:14:17;96260.00;;;15.20
30765;BMP180;494;48.744;10.106;2022-07-06T04:16:45;96264.00;;;15.20
30765;BMP180;494;48.744;10.106;2022-07-06T04:19:14;95556.00;;;15.30
30765;BMP180;494;48.744;10.106;2022-07-06T04:21:42;96299.00;;;15.30
30765;BMP180;494;48.744;10.106;2022-07-06T04:24:11;95975.00;;;15.30
30765;BMP180;494;48.744;10.106;2022-07-06T04:26:39;96276.00;;;15.40
30765;BMP180;494;48.744;10.106;2022-07-06T04:29:09;96172.00;;;14.80
30765;BMP180;494;48.744;10.106;2022-07-06T04:31:38;95543.00;;;15.60
30765;BMP180;494;48.744;10.106;2022-07-06T04:34:06;96282.00;;;15.70
30765;BMP180;494;48.744;10.106;2022-07-06T04:36:35;96279.00;;;15.60
30765;BMP180;494;48.744;10.106;2022-07-06T04:39:03;96273.00;;;15.90
30765;BMP180;494;48.744;10.106;2022-07-06T04:41:32;96287.00;;;16.00
30765;BMP180;494;48.744;10.106;2022-07-06T04:44:00;96077.00;;;16.10
30765;BMP180;494;48.744;10.106;2022-07-06T04:46:30;96280.00;;;16.30
30765;BMP180;494;48.744;10.106;2022-07-06T04:48:59;96287.00;;;16.40
30765;BMP180;494;48.744;10.106;2022-07-06T04:51:27;96193.00;;;16.00
30765;BMP180;494;48.744;10.106;2022-07-06T04:53:56;96275.00;;;15.60
30765;BMP180;494;48.744;10.106;2022-07-06T04:56:24;96083.00;;;16.10
30765;BMP180;494;48.744;10.106;2022-07-06T04:58:52;95737.00;;;15.70
30765;BMP180;494;48.744;10.106;2022-07-06T05:01:21;96291.00;;;16.60
30765;BMP180;494;48.744;10.106;2022-07-06T05:03:51;96291.00;;;16.60
30765;BMP180;494;48.744;10.106;2022-07-06T05:06:19;96298.00;;;16.80
30765;BMP180;494;48.744;10.106;2022-07-06T05:08:48;96290.00;;;17.00
30765;BMP180;494;48.744;10.106;2022-07-06T05:11:16;96284.00;;;17.20
30765;BMP180;494;48.744;10.106;2022-07-06T05:13:45;96312.00;;;17.30
30765;BMP180;494;48.744;10.106;2022-07-06T05:16:13;96292.00;;;17.40
30765;BMP180;494;48.744;10.106;2022-07-06T05:18:42;96291.00;;;17.50
30765;BMP180;494;48.744;10.106;2022-07-06T05:21:12;96098.00;;;17.60
30765;BMP180;494;48.744;10.106;2022-07-06T05:23:40;96214.00;;;17.60
30765;BMP180;494;48.744;10.106;2022-07-06T05:26:09;96117.00;;;17.90
30765;BMP180;494;48.744;10.106;2022-07-06T05:28:37;96292.00;;;18.00
30765;BMP180;494;48.744;10.106;2022-07-06T05:31:06;96302.00;;;18.20
30765;BMP180;494;48.744;10.106;2022-07-06T05:33:35;96212.00;;;18.30
30765;BMP180;494;48.744;10.106;2022-07-06T05:36:04;96236.00;;;18.40
30765;BMP180;494;48.744;10.106;2022-07-06T05:38:34;96295.00;;;18.50
30765;BMP180;494;48.744;10.106;2022-07-06T05:41:02;96166.00;;;18.80
30765;BMP180;494;48.744;10.106;2022-07-06T05:43:31;96299.00;;;19.00
30765;BMP180;494;48.744;10.106;2022-07-06T05:45:59;96296.00;;;19.00
30765;BMP180;494;48.744;10.106;2022-07-06T05:48:28;96294.00;;;19.20
30765;BMP180;494;48.744;10.106;2022-07-06T05:51:14;96228.00;;;19.40
30765;BMP180;494;48.744;10.106;2022-07-06T05:53:44;96248.00;;;19.50
30765;BMP180;494;48.744;10.106;2022-07-06T05:56:12;96171.00;;;19.70
30765;BMP180;494;48.744;10.106;2022-07-06T05:58:41;96333.00;;;19.80
30765;BMP180;494;48.744;10.106;2022-07-06T06:01:09;96199.00;;;20.00
30765;BMP180;494;48.744;10.106;2022-07-06T06:03:38;96120.00;;;18.90
30765;BMP180;494;48.744;10.106;2022-07-06T06:06:07;96300.00;;;20.20
30765;BMP180;494;48.744;10.106;2022-07-06T06:08:35;96087.00;;;20.40
30765;BMP180;494;48.744;10.106;2022-07-06T06:11:05;96315.00;;;20.50
30765;BMP180;494;48.744;10.106;2022-07-06T06:13:37;96133.00;;;20.50
30765;BMP180;494;48.744;10.106;2022-07-06T06:16:06;96045.00;;;20.70
30765;BMP180;494;48.744;10.106;2022-07-06T06:18:35;96306.00;;;20.80
30765;BMP180;494;48.744;10.106;2022-07-06T06:21:09;96315.00;;;20.40
30765;BMP180;494;48.744;10.106;2022-07-06T06:23:38;96165.00;;;21.10
30765;BMP180;494;48.744;10.106;2022-07-06T06:26:07;96315.00;;;21.20
30765;BMP180;494;48.744;10.106;2022-07-06T06:28:36;96323.00;;;21.30
30765;BMP180;494;48.744;10.106;2022-07-06T06:31:05;96314.00;;;21.50
30765;BMP180;494;48.744;10.106;2022-07-06T06:33:34;96013.00;;;21.30
30765;BMP180;494;48.744;10.106;2022-07-06T06:36:03;96343.00;;;21.60
30765;BMP180;494;48.744;10.106;2022-07-06T06:38:32;96291.00;;;21.60
30765;BMP180;494;48.744;10.106;2022-07-06T06:41:00;96315.00;;;22.30
30765;BMP180;494;48.744;10.106;2022-07-06T06:43:31;96195.00;;;22.40
30765;BMP180;494;48.744;10.106;2022-07-06T06:46:00;96320.00;;;22.40
30765;BMP180;494;48.744;10.106;2022-07-06T06:48:29;96321.00;;;22.70
30765;BMP180;494;48.744;10.106;2022-07-06T06:50:58;96316.00;;;22.80
30765;BMP180;494;48.744;10.106;2022-07-06T06:53:27;96016.00;;;22.50
30765;BMP180;494;48.744;10.106;2022-07-06T06:56:00;96315.00;;;23.10
30765;BMP180;494;48.744;10.106;2022-07-06T06:58:29;96319.00;;;23.00
30765;BMP180;494;48.744;10.106;2022-07-06T07:01:18;96170.00;;;22.90
30765;BMP180;494;48.744;10.106;2022-07-06T07:03:47;96323.00;;;23.10
30765;BMP180;494;48.744;10.106;2022-07-06T07:06:16;96327.00;;;22.80
30765;BMP180;494;48.744;10.106;2022-07-06T07:08:44;96328.00;;;23.30
30765;BMP180;494;48.744;10.106;2022-07-06T07:11:13;96338.00;;;23.40
30765;BMP180;494;48.744;10.106;2022-07-06T07:13:42;96326.00;;;23.60
30765;BMP180;494;48.744;10.106;2022-07-06T07:16:11;96314.00;;;23.60
30765;BMP180;494;48.744;10.106;2022-07-06T07:18:41;96321.00;;;23.70
30765;BMP180;494;48.744;10.106;2022-07-06T07:21:09;96168.00;;;23.60
30765;BMP180;494;48.744;10.106;2022-07-06T07:23:38;96323.00;;;24.00
30765;BMP180;494;48.744;10.106;2022-07-06T07:26:06;95943.00;;;23.60
30765;BMP180;494;48.744;10.106;2022-07-06T07:28:35;95625.00;;;23.70
30765;BMP180;494;48.744;10.106;2022-07-06T07:31:05;96321.00;;;24.40
30765;BMP180;494;48.744;10.106;2022-07-06T07:33:34;96208.00;;;24.10
30765;BMP180;494;48.744;10.106;2022-07-06T07:36:05;96182.00;;;24.40
30765;BMP180;494;48.744;10.106;2022-07-06T07:38:33;96322.00;;;24.20
30765;BMP180;494;48.744;10.106;2022-07-06T07:41:01;96333.00;;;25.10
30765;BMP180;494;48.744;10.106;2022-07-06T07:43:30;96176.00;;;25.20
30765;BMP180;494;48.744;10.106;2022-07-06T07:45:59;96314.00;;;25.30
30765;BMP180;494;48.744;10.106;2022-07-06T07:48:27;96319.00;;;25.50
30765;BMP180;494;48.744;10.106;2022-07-06T07:50:56;96318.00;;;25.90
30765;BMP180;494;48.744;10.106;2022-07-06T07:53:26;96314.00;;;25.80
30765;BMP180;494;48.744;10.106;2022-07-06T07:55:54;96349.00;;;25.80
30765;BMP180;494;48.744;10.106;2022-07-06T07:58:23;96318.00;;;25.80
30765;BMP180;494;48.744;10.106;2022-07-06T08:00:52;96220.00;;;25.40
30765;BMP180;494;48.744;10.106;2022-07-06T08:03:20;95967.00;;;25.70
30765;BMP180;494;48.744;10.106;2022-07-06T08:05:49;95828.00;;;25.70
30765;BMP180;494;48.744;10.106;2022-07-06T08:08:17;96315.00;;;25.90
30765;BMP180;494;48.744;10.106;2022-07-06T08:10:48;96231.00;;;25.90
30765;BMP180;494;48.744;10.106;2022-07-06T08:13:36;96346.00;;;26.10
30765;BMP180;494;48.744;10.106;2022-07-06T08:16:05;96313.00;;;26.00
30765;BMP180;494;48.744;10.106;2022-07-06T08:18:33;95875.00;;;26.20
30765;BMP180;494;48.744;10.106;2022-07-06T08:21:03;96319.00;;;26.40
30765;BMP180;494;48.744;10.106;2022-07-06T08:23:51;96168.00;;;26.70
30765;BMP180;494;48.744;10.106;2022-07-06T08:26:21;96321.00;;;26.50
30765;BMP180;494;48.744;10.106;2022-07-06T08:28:50;96315.00;;;26.30
30765;BMP180;494;48.744;10.106;2022-07-06T08:31:19;96154.00;;;25.90
30765;BMP180;494;48.744;10.106;2022-07-06T08:34:08;96341.00;;;26.30
30765;BMP180;494;48.744;10.106;2022-07-06T08:36:36;96315.00;;;26.40
30765;BMP180;494;48.744;10.106;2022-07-06T08:39:05;96321.00;;;26.70
30765;BMP180;494;48.744;10.106;2022-07-06T08:41:38;96260.00;;;26.50
30765;BMP180;494;48.744;10.106;2022-07-06T08:44:09;96254.00;;;26.90
30765;BMP180;494;48.744;10.106;2022-07-06T08:46:38;96251.00;;;26.70
30765;BMP180;494;48.744;10.106;2022-07-06T08:49:09;96126.00;;;26.90
30765;BMP180;494;48.744;10.106;2022-07-06T08:51:41;96242.00;;;26.90
30765;BMP180;494;48.744;10.106;2022-07-06T08:54:11;96295.00;;;26.40
30765;BMP180;494;48.744;10.106;2022-07-06T08:56:42;96270.00;;;26.80
30765;BMP180;494;48.744;10.106;2022-07-06T08:59:15;96208.00;;;26.60
30765;BMP180;494;48.744;10.106;2022-07-06T09:01:44;96098.00;;;26.60
30765;BMP180;494;48.744;10.106;2022-07-06T09:04:16;96268.00;;;25.70
30765;BMP180;494;48.744;10.106;2022-07-06T09:06:47;96161.00;;;26.60
30765;BMP180;494;48.744;10.106;2022-07-06T09:09:20;96361.00;;;26.90
30765;BMP180;494;48.744;10.106;2022-07-06T09:11:51;96381.00;;;26.80
30765;BMP180;494;48.744;10.106;2022-07-06T09:14:20;96334.00;;;27.10
30765;BMP180;494;48.744;10.106;2022-07-06T09:17:01;96328.00;;;27.10
30765;BMP180;494;48.744;10.106;2022-07-06T09:19:32;96346.00;;;26.80
30765;BMP180;494;48.744;10.106;2022-07-06T09:22:03;96157.00;;;27.30
30765;BMP180;494;48.744;10.106;2022-07-06T09:24:32;95813.00;;;27.20
30765;BMP180;494;48.744;10.106;2022-07-06T09:27:02;96335.00;;;27.10
30765;BMP180;494;48.744;10.106;2022-07-06T09:29:32;96106.00;;;27.50
30765;BMP180;494;48.744;10.106;2022-07-06T09:32:03;96345.00;;;27.90
30765;BMP180;494;48.744;10.106;2022-07-06T09:34:44;96349.00;;;28.10
30765;BMP180;494;48.744;10.106;2022-07-06T09:37:14;96345.00;;;28.00
30765;BMP180;494;48.744;10.106;2022-07-06T09:39:43;96344.00;;;28.20
30765;BMP180;494;48.744;10.106;2022-07-06T09:42:14;96292.00;;;28.40
30765;BMP180;494;48.744;10.106;2022-07-06T09:44:43;96265.00;;;28.20
30765;BMP180;494;48.744;10.106;2022-07-06T09:47:12;96371.00;;;28.40
30765;BMP180;494;48.744;10.106;2022-07-06T09:49:41;96352.00;;;28.70
30765;BMP180;494;48.744;10.106;2022-07-06T09:52:11;96352.00;;;28.90
30765;BMP180;494;48.744;10.106;2022-07-06T09:54:40;96352.00;;;28.70
30765;BMP180;494;48.744;10.106;2022-07-06T09:57:09;96359.00;;;29.10
30765;BMP180;494;48.744;10.106;2022-07-06T09:59:39;96358.00;;;28.90
30765;BMP180;494;48.744;10.106;2022-07-06T10:02:08;96354.00;;;28.80
30765;BMP180;494;48.744;10.106;2022-07-06T10:04:36;96234.00;;;28.50
30765;BMP180;494;48.744;10.106;2022-07-06T10:07:08;96254.00;;;28.60
30765;BMP180;494;48.744;10.106;2022-07-06T10:09:38;96362.00;;;28.80
30765;BMP180;494;48.744;10.106;2022-07-06T10:12:12;96271.00;;;28.00
30765;BMP180;494;48.744;10.106;2022-07-06T10:14:44;96361.00;;;29.00
30765;BMP180;494;48.744;10.106;2022-07-06T10:17:18;96361.00;;;29.00
30765;BMP180;494;48.744;10.106;2022-07-06T10:19:50;96356.00;;;29.40
30765;BMP180;494;48.744;10.106;2022-07-06T10:22:19;96298.00;;;29.40
30765;BMP180;494;48.744;10.106;2022-07-06T10:24:50;96117.00;;;28.90
30765;BMP180;494;48.744;10.106;2022-07-06T10:27:19;96360.00;;;29.00
30765;BMP180;494;48.744;10.106;2022-07-06T10:29:49;96310.00;;;29.30
30765;BMP180;494;48.744;10.106;2022-07-06T10:32:19;96216.00;;;29.50
30765;BMP180;494;48.744;10.106;2022-07-06T10:34:49;96369.00;;;29.80
30765;BMP180;494;48.744;10.106;2022-07-06T10:37:24;96364.00;;;29.30
30765;BMP180;494;48.744;10.106;2022-07-06T10:39:54;96361.00;;;28.90
30765;BMP180;494;48.744;10.106;2022-07-06T10:42:42;96389.00;;;28.90
30765;BMP180;494;48.744;10.106;2022-07-06T10:45:16;96361.00;;;29.40
30765;BMP180;494;48.744;10.106;2022-07-06T10:47:50;96366.00;;;29.20
30765;BMP180;494;48.744;10.106;2022-07-06T10:50:36;96383.00;;;29.10
30765;BMP180;494;48.744;10.106;2022-07-06T10:53:12;96359.00;;;28.40
30765;BMP180;494;48.744;10.106;2022-07-06T10:55:44;96395.00;;;28.40
30765;BMP180;494;48.744;10.106;2022-07-06T10:58:15;96370.00;;;28.60
30765;BMP180;494;48.744;10.106;2022-07-06T11:00:52;96041.00;;;28.20
30765;BMP180;494;48.744;10.106;2022-07-06T11:03:32;96260.00;;;28.20
30765;BMP180;494;48.744;10.106;2022-07-06T11:06:07;96369.00;;;28.10
30765;BMP180;494;48.744;10.106;2022-07-06T11:08:55;96367.00;;;27.90
30765;BMP180;494;48.744;10.106;2022-07-06T11:11:40;96237.00;;;27.30
30765;BMP180;494;48.744;10.106;2022-07-06T11:14:12;96248.00;;;27.70
30765;BMP180;494;48.744;10.106;2022-07-06T11:17:01;96366.00;;;27.70
30765;BMP180;494;48.744;10.106;2022-07-06T11:19:31;96364.00;;;27.90
30765;BMP180;494;48.744;10.106;2022-07-06T11:22:07;96364.00;;;28.50
30765;BMP180;494;48.744;10.106;2022-07-06T11:24:39;96156.00;;;28.40
30765;BMP180;494;48.744;10.106;2022-07-06T11:27:08;96354.00;;;28.70
30765;BMP180;494;48.744;10.106;2022-07-06T11:29:37;96284.00;;;28.70
30765;BMP180;494;48.744;10.106;2022-07-06T11:32:09;96356.00;;;29.10
30765;BMP180;494;48.744;10.106;2022-07-06T11:34:40;96361.00;;;29.70
30765;BMP180;494;48.744;10.106;2022-07-06T11:37:12;96362.00;;;29.80
30765;BMP180;494;48.744;10.106;2022-07-06T11:39:43;96392.00;;;29.90
30765;BMP180;494;48.744;10.106;2022-07-06T11:42:14;96352.00;;;30.30
30765;BMP180;494;48.744;10.106;2022-07-06T11:44:45;96343.00;;;30.00
30765;BMP180;494;48.744;10.106;2022-07-06T11:47:15;96302.00;;;29.20
30765;BMP180;494;48.744;10.106;2022-07-06T11:49:51;96240.00;;;29.40
30765;BMP180;494;48.744;10.106;2022-07-06T11:52:20;96121.00;;;29.90
30765;BMP180;494;48.744;10.106;2022-07-06T11:54:57;96375.00;;;29.40
30765;BMP180;494;48.744;10.106;2022-07-06T11:57:32;96207.00;;;28.70
30765;BMP180;494;48.744;10.106;2022-07-06T12:00:01;96192.00;;;29.30
30765;BMP180;494;48.744;10.106;2022-07-06T12:02:31;96346.00;;;28.70
30765;BMP180;494;48.744;10.106;2022-07-06T12:04:59;96340.00;;;28.00
30765;BMP180;494;48.744;10.106;2022-07-06T12:07:28;95931.00;;;28.30
30765;BMP180;494;48.744;10.106;2022-07-06T12:09:57;96324.00;;;29.20
30765;BMP180;494;48.744;10.106;2022-07-06T12:12:25;96321.00;;;29.80
30765;BMP180;494;48.744;10.106;2022-07-06T12:14:54;96326.00;;;29.90
30765;BMP180;494;48.744;10.106;2022-07-06T12:17:22;96331.00;;;30.10
30765;BMP180;494;48.744;10.106;2022-07-06T12:19:54;96342.00;;;30.40
30765;BMP180;494;48.744;10.106;2022-07-06T12:22:25;96329.00;;;30.70
30765;BMP180;494;48.744;10.106;2022-07-06T12:24:54;96320.00;;;31.00
30765;BMP180;494;48.744;10.106;2022-07-06T12:27:22;96326.00;;;31.40
30765;BMP180;494;48.744;10.106;2022-07-06T12:29:51;96329.00;;;31.30
30765;BMP180;494;48.744;10.106;2022-07-06T12:32:21;96332.00;;;30.30
30765;BMP180;494;48.744;10.106;2022-07-06T12:35:04;96330.00;;;30.00
30765;BMP180;494;48.744;10.106;2022-07-06T12:37:33;96334.00;;;30.90
30765;BMP180;494;48.744;10.106;2022-07-06T12:40:04;96316.00;;;30.10
30765;BMP180;494;48.744;10.106;2022-07-06T12:42:46;95839.00;;;28.20
30765;BMP180;494;48.744;10.106;2022-07-06T12:45:15;96332.00;;;29.50
30765;BMP180;494;48.744;10.106;2022-07-06T12:47:57;96332.00;;;28.80
30765;BMP180;494;48.744;10.106;2022-07-06T12:50:37;96332.00;;;28.70
30765;BMP180;494;48.744;10.106;2022-07-06T12:53:23;96162.00;;;29.10
30765;BMP180;494;48.744;10.106;2022-07-06T12:56:08;96333.00;;;29.90
30765;BMP180;494;48.744;10.106;2022-07-06T12:58:36;96327.00;;;30.50
30765;BMP180;494;48.744;10.106;2022-07-06T13:01:05;96347.00;;;31.00
30765;BMP180;494;48.744;10.106;2022-07-06T13:03:38;96333.00;;;30.90
30765;BMP180;494;48.744;10.106;2022-07-06T13:06:09;96330.00;;;30.70
30765;BMP180;494;48.744;10.106;2022-07-06T13:08:37;96334.00;;;30.70
30765;BMP180;494;48.744;10.106;2022-07-06T13:11:06;96331.00;;;31.10
30765;BMP180;494;48.744;10.106;2022-07-06T13:13:43;96330.00;;;31.50
30765;BMP180;494;48.744;10.106;2022-07-06T13:16:12;96327.00;;;32.10
30765;BMP180;494;48.744;10.106;2022-07-06T13:18:40;96329.00;;;32.50
30765;BMP180;494;48.744;10.106;2022-07-06T13:21:10;96324.00;;;32.40
30765;BMP180;494;48.744;10.106;2022-07-06T13:23:39;96319.00;;;32.30
30765;BMP180;494;48.744;10.106;2022-07-06T13:26:08;96328.00;;;32.60
30765;BMP180;494;48.744;10.106;2022-07-06T13:28:37;96251.00;;;32.10
30765;BMP180;494;48.744;10.106;2022-07-06T13:31:05;96321.00;;;31.80
30765;BMP180;494;48.744;10.106;2022-07-06T13:33:38;96317.00;;;31.60
30765;BMP180;494;48.744;10.106;2022-07-06T13:36:07;96322.00;;;31.00
30765;BMP180;494;48.744;10.106;2022-07-06T13:38:38;96308.00;;;31.60
30765;BMP180;494;48.744;10.106;2022-07-06T13:41:06;96312.00;;;31.30
30765;BMP180;494;48.744;10.106;2022-07-06T13:43:34;96311.00;;;31.00
30765;BMP180;494;48.744;10.106;2022-07-06T13:46:04;96306.00;;;31.90
30765;BMP180;494;48.744;10.106;2022-07-06T13:48:34;96323.00;;;31.20
30765;BMP180;494;48.744;10.106;2022-07-06T13:51:03;96314.00;;;32.60
30765;BMP180;494;48.744;10.106;2022-07-06T13:53:32;96316.00;;;31.90
30765;BMP180;494;48.744;10.106;2022-07-06T13:56:02;96310.00;;;31.20
30765;BMP180;494;48.744;10.106;2022-07-06T13:58:31;96079.00;;;30.90
30765;BMP180;494;48.744;10.106;2022-07-06T14:00:59;96301.00;;;32.40
30765;BMP180;494;48.744;10.106;2022-07-06T14:03:28;96306.00;;;32.60
30765;BMP180;494;48.744;10.106;2022-07-06T14:05:59;96300.00;;;32.50
30765;BMP180;494;48.744;10.106;2022-07-06T14:08:28;96301.00;;;33.30
30765;BMP180;494;48.744;10.106;2022-07-06T14:10:57;96179.00;;;33.50
30765;BMP180;494;48.744;10.106;2022-07-06T14:13:28;96300.00;;;34.40
30765;BMP180;494;48.744;10.106;2022-07-06T14:15:57;96307.00;;;33.60
30765;BMP180;494;48.744;10.106;2022-07-06T14:18:26;96173.00;;;33.10
30765;BMP180;494;48.744;10.106;2022-07-06T14:20:55;96303.00;;;33.40
30765;BMP180;494;48.744;10.106;2022-07-06T14:23:24;96291.00;;;33.40
30765;BMP180;494;48.744;10.106;2022-07-06T14:25:53;96156.00;;;33.60
30765;BMP180;494;48.744;10.106;2022-07-06T14:28:22;96242.00;;;31.10
30765;BMP180;494;48.744;10.106;2022-07-06T14:30:52;96296.00;;;30.40
30765;BMP180;494;48.744;10.106;2022-07-06T14:33:20;96297.00;;;30.00
30765;BMP180;494;48.744;10.106;2022-07-06T14:35:50;96284.00;;;30.00
30765;BMP180;494;48.744;10.106;2022-07-06T14:38:19;96286.00;;;31.10